sensor_id;sensor_type;location;lat;lon;timestamp;P1;durP1;ratioP1;P2;durP2;ratioP2
6177;SDS011;3122;48.208;11.174;2023-08-06T00:04:56;5.30;;;4.80;;
6177;SDS011;3122;48.208;11.174;2023-08-06T00:09:57;6.33;;;5.10;;
6177;SDS011;3122;48.208;11.174;2023-08-06T00:14:57;5.47;;;4.97;;
6177;SDS011;3122;48.208;11.174;2023-08-06T00:19:58;5.07;;;4.60;;
6177;SDS011;3122;48.208;11.174;2023-08-06T00:25:04;5.97;;;4.83;;
6177;SDS011;3122;48.208;11.174;2023-08-06T00:30:05;9.20;;;5.60;;
6177;SDS011;3122;48.208;11.174;2023-08-06T00:35:06;6.43;;;5.80;;
6177;SDS011;3122;48.208;11.174;2023-08-06T00:40:07;7.23;;;5.47;;
6177;SDS011;3122;48.208;11.174;2023-08-06T00:45:11;6.87;;;5.50;;
6177;SDS011;3122;48.208;11.174;2023-08-06T00:50:11;6.40;;;5.80;;
6177;SDS011;3122;48.208;11.174;2023-08-06T00:55:12;6.73;;;6.03;;
6177;SDS011;3122;48.208;11.174;2023-08-06T01:00:13;7.80;;;6.00;;
6177;SDS011;3122;48.208;11.174;2023-08-06T01:05:14;6.90;;;6.23;;
6177;SDS011;3122;48.208;11.174;2023-08-06T01:15:46;9.03;;;7.10;;
6177;SDS011;3122;48.208;11.174;2023-08-06T01:20:49;7.83;;;6.47;;
6177;SDS011;3122;48.208;11.174;2023-08-06T01:25:58;6.73;;;6.07;;
6177;SDS011;3122;48.208;11.174;2023-08-06T01:31:01;6.60;;;5.90;;
6177;SDS011;3122;48.208;11.174;2023-08-06T01:36:04;5.77;;;5.20;;
6177;SDS011;3122;48.208;11.174;2023-08-06T01:41:06;6.10;;;5.20;;
6177;SDS011;3122;48.208;11.174;2023-08-06T01:46:07;6.43;;;5.20;;
6177;SDS011;3122;48.208;11.174;2023-08-06T01:51:07;9.80;;;5.50;;
6177;SDS011;3122;48.208;11.174;2023-08-06T01:56:08;4.77;;;4.37;;
6177;SDS011;3122;48.208;11.174;2023-08-06T02:01:08;5.77;;;4.10;;
6177;SDS011;3122;48.208;11.174;2023-08-06T02:06:09;4.30;;;3.97;;
6177;SDS011;3122;48.208;11.174;2023-08-06T02:11:09;5.70;;;4.03;;
6177;SDS011;3122;48.208;11.174;2023-08-06T02:16:10;5.00;;;4.60;;
6177;SDS011;3122;48.208;11.174;2023-08-06T02:21:10;4.23;;;3.90;;
6177;SDS011;3122;48.208;11.174;2023-08-06T02:26:11;4.77;;;4.37;;
6177;SDS011;3122;48.208;11.174;2023-08-06T02:31:11;4.63;;;4.23;;
6177;SDS011;3122;48.208;11.174;2023-08-06T02:36:12;4.80;;;4.40;;
6177;SDS011;3122;48.208;11.174;2023-08-06T02:41:13;4.53;;;4.13;;
6177;SDS011;3122;48.208;11.174;2023-08-06T02:46:13;4.10;;;3.70;;
6177;SDS011;3122;48.208;11.174;2023-08-06T02:51:14;4.10;;;3.80;;
6177;SDS011;3122;48.208;11.174;2023-08-06T02:56:14;6.87;;;4.03;;
6177;SDS011;3122;48.208;11.174;2023-08-06T03:01:15;4.13;;;3.73;;
6177;SDS011;3122;48.208;11.174;2023-08-06T03:06:16;4.50;;;4.10;;
6177;SDS011;3122;48.208;11.174;2023-08-06T03:11:16;5.30;;;4.50;;
6177;SDS011;3122;48.208;11.174;2023-08-06T03:16:17;4.73;;;4.33;;
6177;SDS011;3122;48.208;11.174;2023-08-06T03:21:17;4.23;;;3.83;;
6177;SDS011;3122;48.208;11.174;2023-08-06T03:26:18;4.47;;;4.07;;
6177;SDS011;3122;48.208;11.174;2023-08-06T03:31:18;5.03;;;4.53;;
6177;SDS011;3122;48.208;11.174;2023-08-06T03:36:19;5.00;;;3.90;;
6177;SDS011;3122;48.208;11.174;2023-08-06T03:41:20;5.30;;;4.80;;
6177;SDS011;3122;48.208;11.174;2023-08-06T03:46:20;4.43;;;3.90;;
6177;SDS011;3122;48.208;11.174;2023-08-06T03:51:21;4.80;;;4.20;;
6177;SDS011;3122;48.208;11.174;2023-08-06T03:56:21;4.20;;;3.80;;
6177;SDS011;3122;48.208;11.174;2023-08-06T04:01:22;3.93;;;3.53;;
6177;SDS011;3122;48.208;11.174;2023-08-06T04:06:22;4.40;;;4.00;;
6177;SDS011;3122;48.208;11.174;2023-08-06T04:11:23;3.80;;;3.50;;
6177;SDS011;3122;48.208;11.174;2023-08-06T04:16:23;6.80;;;3.90;;
6177;SDS011;3122;48.208;11.174;2023-08-06T04:21:26;4.27;;;3.87;;
6177;SDS011;3122;48.208;11.174;2023-08-06T04:26:26;4.20;;;3.80;;
6177;SDS011;3122;48.208;11.174;2023-08-06T04:31:28;4.50;;;4.07;;
6177;SDS011;3122;48.208;11.174;2023-08-06T04:36:28;4.50;;;3.80;;
6177;SDS011;3122;48.208;11.174;2023-08-06T04:41:29;3.23;;;3.00;;
6177;SDS011;3122;48.208;11.174;2023-08-06T04:46:30;4.80;;;3.60;;
6177;SDS011;3122;48.208;11.174;2023-08-06T04:51:30;4.17;;;3.70;;
6177;SDS011;3122;48.208;11.174;2023-08-06T04:56:31;4.30;;;3.17;;
6177;SDS011;3122;48.208;11.174;2023-08-06T05:01:32;4.00;;;3.70;;
6177;SDS011;3122;48.208;11.174;2023-08-06T05:06:33;3.83;;;3.43;;
6177;SDS011;3122;48.208;11.174;2023-08-06T05:11:33;3.40;;;3.10;;
6177;SDS011;3122;48.208;11.174;2023-08-06T05:16:34;3.73;;;3.37;;
6177;SDS011;3122;48.208;11.174;2023-08-06T05:21:34;3.77;;;3.40;;
6177;SDS011;3122;48.208;11.174;2023-08-06T05:26:35;3.10;;;2.90;;
6177;SDS011;3122;48.208;11.174;2023-08-06T05:31:35;3.47;;;3.17;;
6177;SDS011;3122;48.208;11.174;2023-08-06T05:36:36;4.23;;;3.30;;
6177;SDS011;3122;48.208;11.174;2023-08-06T05:41:36;4.27;;;3.20;;
6177;SDS011;3122;48.208;11.174;2023-08-06T05:46:37;3.30;;;3.00;;
6177;SDS011;3122;48.208;11.174;2023-08-06T05:51:37;3.40;;;3.10;;
6177;SDS011;3122;48.208;11.174;2023-08-06T05:56:38;6.63;;;3.23;;
6177;SDS011;3122;48.208;11.174;2023-08-06T06:01:38;3.63;;;3.33;;
6177;SDS011;3122;48.208;11.174;2023-08-06T06:06:39;2.90;;;2.70;;
6177;SDS011;3122;48.208;11.174;2023-08-06T06:11:41;2.70;;;2.50;;
6177;SDS011;3122;48.208;11.174;2023-08-06T06:16:42;2.77;;;2.50;;
6177;SDS011;3122;48.208;11.174;2023-08-06T06:21:43;2.83;;;2.53;;
6177;SDS011;3122;48.208;11.174;2023-08-06T06:26:43;3.70;;;3.07;;
6177;SDS011;3122;48.208;11.174;2023-08-06T06:31:44;2.27;;;2.00;;
6177;SDS011;3122;48.208;11.174;2023-08-06T06:36:44;1.80;;;1.70;;
6177;SDS011;3122;48.208;11.174;2023-08-06T06:41:45;2.60;;;1.80;;
6177;SDS011;3122;48.208;11.174;2023-08-06T06:46:45;4.77;;;1.93;;
6177;SDS011;3122;48.208;11.174;2023-08-06T06:51:46;1.70;;;1.60;;
6177;SDS011;3122;48.208;11.174;2023-08-06T06:56:47;4.07;;;2.50;;
6177;SDS011;3122;48.208;11.174;2023-08-06T07:01:47;3.00;;;2.43;;
6177;SDS011;3122;48.208;11.174;2023-08-06T07:06:48;2.17;;;2.00;;
6177;SDS011;3122;48.208;11.174;2023-08-06T07:11:48;3.70;;;2.10;;
6177;SDS011;3122;48.208;11.174;2023-08-06T07:16:49;2.23;;;2.03;;
6177;SDS011;3122;48.208;11.174;2023-08-06T07:21:49;2.43;;;1.87;;
6177;SDS011;3122;48.208;11.174;2023-08-06T07:26:50;2.40;;;2.03;;
6177;SDS011;3122;48.208;11.174;2023-08-06T07:31:52;2.80;;;1.40;;
6177;SDS011;3122;48.208;11.174;2023-08-06T07:36:53;2.30;;;1.50;;
6177;SDS011;3122;48.208;11.174;2023-08-06T07:41:53;1.70;;;1.60;;
6177;SDS011;3122;48.208;11.174;2023-08-06T07:46:54;2.37;;;1.50;;
6177;SDS011;3122;48.208;11.174;2023-08-06T07:51:55;2.40;;;1.60;;
6177;SDS011;3122;48.208;11.174;2023-08-06T07:56:55;2.40;;;1.50;;
6177;SDS011;3122;48.208;11.174;2023-08-06T08:01:56;2.30;;;1.30;;
6177;SDS011;3122;48.208;11.174;2023-08-06T08:06:56;1.47;;;1.37;;
6177;SDS011;3122;48.208;11.174;2023-08-06T08:11:57;1.57;;;1.20;;
6177;SDS011;3122;48.208;11.174;2023-08-06T08:17:03;1.37;;;1.27;;
6177;SDS011;3122;48.208;11.174;2023-08-06T08:22:05;1.37;;;1.30;;
6177;SDS011;3122;48.208;11.174;2023-08-06T08:27:06;1.67;;;1.10;;
6177;SDS011;3122;48.208;11.174;2023-08-06T08:32:06;1.37;;;1.27;;
6177;SDS011;3122;48.208;11.174;2023-08-06T08:37:07;1.50;;;1.40;;
6177;SDS011;3122;48.208;11.174;2023-08-06T08:42:08;1.30;;;1.07;;
6177;SDS011;3122;48.208;11.174;2023-08-06T08:47:10;1.20;;;1.10;;
6177;SDS011;3122;48.208;11.174;2023-08-06T08:52:11;0.80;;;0.80;;
6177;SDS011;3122;48.208;11.174;2023-08-06T08:57:14;3.73;;;0.90;;
6177;SDS011;3122;48.208;11.174;2023-08-06T09:02:15;0.70;;;0.70;;
6177;SDS011;3122;48.208;11.174;2023-08-06T09:07:19;1.00;;;0.90;;
6177;SDS011;3122;48.208;11.174;2023-08-06T09:12:21;0.80;;;0.80;;
6177;SDS011;3122;48.208;11.174;2023-08-06T09:17:22;1.47;;;0.80;;
6177;SDS011;3122;48.208;11.174;2023-08-06T09:22:23;2.20;;;0.93;;
6177;SDS011;3122;48.208;11.174;2023-08-06T09:27:23;1.20;;;1.00;;
6177;SDS011;3122;48.208;11.174;2023-08-06T09:32:24;1.30;;;0.70;;
6177;SDS011;3122;48.208;11.174;2023-08-06T09:37:25;1.60;;;0.87;;
6177;SDS011;3122;48.208;11.174;2023-08-06T09:42:36;1.00;;;0.83;;
6177;SDS011;3122;48.208;11.174;2023-08-06T09:47:36;5.13;;;0.90;;
6177;SDS011;3122;48.208;11.174;2023-08-06T09:52:37;2.27;;;1.03;;
6177;SDS011;3122;48.208;11.174;2023-08-06T09:57:38;0.70;;;0.70;;
6177;SDS011;3122;48.208;11.174;2023-08-06T10:02:42;1.17;;;0.90;;
6177;SDS011;3122;48.208;11.174;2023-08-06T10:07:43;0.70;;;0.70;;
6177;SDS011;3122;48.208;11.174;2023-08-06T10:12:46;0.80;;;0.70;;
6177;SDS011;3122;48.208;11.174;2023-08-06T10:17:50;1.20;;;1.00;;
6177;SDS011;3122;48.208;11.174;2023-08-06T10:23:01;0.90;;;0.80;;
6177;SDS011;3122;48.208;11.174;2023-08-06T10:28:07;0.70;;;0.70;;
6177;SDS011;3122;48.208;11.174;2023-08-06T10:33:11;0.80;;;0.80;;
6177;SDS011;3122;48.208;11.174;2023-08-06T10:38:16;0.80;;;0.80;;
6177;SDS011;3122;48.208;11.174;2023-08-06T10:43:24;0.90;;;0.90;;
6177;SDS011;3122;48.208;11.174;2023-08-06T10:48:38;0.70;;;0.60;;
6177;SDS011;3122;48.208;11.174;2023-08-06T10:53:44;0.70;;;0.70;;
6177;SDS011;3122;48.208;11.174;2023-08-06T10:58:46;0.70;;;0.70;;
6177;SDS011;3122;48.208;11.174;2023-08-06T11:03:47;0.87;;;0.70;;
6177;SDS011;3122;48.208;11.174;2023-08-06T11:08:51;0.80;;;0.70;;
6177;SDS011;3122;48.208;11.174;2023-08-06T11:13:53;0.70;;;0.70;;
6177;SDS011;3122;48.208;11.174;2023-08-06T11:18:53;4.40;;;1.00;;
6177;SDS011;3122;48.208;11.174;2023-08-06T11:23:55;0.70;;;0.70;;
6177;SDS011;3122;48.208;11.174;2023-08-06T11:28:55;0.60;;;0.60;;
6177;SDS011;3122;48.208;11.174;2023-08-06T11:33:56;0.70;;;0.70;;
6177;SDS011;3122;48.208;11.174;2023-08-06T11:38:58;0.60;;;0.60;;
6177;SDS011;3122;48.208;11.174;2023-08-06T11:43:59;0.60;;;0.60;;
6177;SDS011;3122;48.208;11.174;2023-08-06T11:49:00;1.30;;;1.00;;
6177;SDS011;3122;48.208;11.174;2023-08-06T11:54:00;2.60;;;0.90;;
6177;SDS011;3122;48.208;11.174;2023-08-06T11:59:02;0.80;;;0.80;;
6177;SDS011;3122;48.208;11.174;2023-08-06T12:04:04;0.70;;;0.67;;
6177;SDS011;3122;48.208;11.174;2023-08-06T12:09:05;1.90;;;0.83;;
6177;SDS011;3122;48.208;11.174;2023-08-06T12:14:05;1.53;;;0.80;;
6177;SDS011;3122;48.208;11.174;2023-08-06T12:19:06;0.80;;;0.80;;
6177;SDS011;3122;48.208;11.174;2023-08-06T12:24:07;0.93;;;0.80;;
6177;SDS011;3122;48.208;11.174;2023-08-06T12:29:07;0.97;;;0.90;;
6177;SDS011;3122;48.208;11.174;2023-08-06T12:34:08;1.30;;;0.83;;
6177;SDS011;3122;48.208;11.174;2023-08-06T12:39:08;0.80;;;0.80;;
6177;SDS011;3122;48.208;11.174;2023-08-06T12:44:09;1.37;;;0.90;;
6177;SDS011;3122;48.208;11.174;2023-08-06T12:49:09;0.97;;;0.80;;
6177;SDS011;3122;48.208;11.174;2023-08-06T12:54:10;0.93;;;0.80;;
6177;SDS011;3122;48.208;11.174;2023-08-06T12:59:11;2.40;;;0.70;;
6177;SDS011;3122;48.208;11.174;2023-08-06T13:04:12;0.80;;;0.80;;
6177;SDS011;3122;48.208;11.174;2023-08-06T13:09:14;1.03;;;0.90;;
6177;SDS011;3122;48.208;11.174;2023-08-06T13:14:15;0.93;;;0.83;;
6177;SDS011;3122;48.208;11.174;2023-08-06T13:19:16;2.20;;;0.80;;
6177;SDS011;3122;48.208;11.174;2023-08-06T13:24:17;0.80;;;0.80;;
6177;SDS011;3122;48.208;11.174;2023-08-06T13:29:17;1.00;;;1.00;;
6177;SDS011;3122;48.208;11.174;2023-08-06T13:34:18;1.20;;;1.10;;
6177;SDS011;3122;48.208;11.174;2023-08-06T13:39:19;1.90;;;0.90;;
6177;SDS011;3122;48.208;11.174;2023-08-06T13:44:19;1.20;;;1.10;;
6177;SDS011;3122;48.208;11.174;2023-08-06T13:49:20;0.93;;;0.93;;
6177;SDS011;3122;48.208;11.174;2023-08-06T13:54:21;0.90;;;0.70;;
6177;SDS011;3122;48.208;11.174;2023-08-06T13:59:21;0.90;;;0.90;;
6177;SDS011;3122;48.208;11.174;2023-08-06T14:04:24;1.07;;;0.97;;
6177;SDS011;3122;48.208;11.174;2023-08-06T14:09:25;1.53;;;1.00;;
6177;SDS011;3122;48.208;11.174;2023-08-06T14:14:27;1.63;;;0.90;;
6177;SDS011;3122;48.208;11.174;2023-08-06T14:19:28;1.57;;;0.97;;
6177;SDS011;3122;48.208;11.174;2023-08-06T14:24:29;0.90;;;0.90;;
6177;SDS011;3122;48.208;11.174;2023-08-06T14:29:29;0.70;;;0.70;;
6177;SDS011;3122;48.208;11.174;2023-08-06T14:34:30;0.80;;;0.80;;
6177;SDS011;3122;48.208;11.174;2023-08-06T14:39:30;1.20;;;0.90;;
6177;SDS011;3122;48.208;11.174;2023-08-06T14:44:31;1.83;;;1.10;;
6177;SDS011;3122;48.208;11.174;2023-08-06T14:49:31;0.80;;;0.80;;
6177;SDS011;3122;48.208;11.174;2023-08-06T14:54:32;1.33;;;0.93;;
6177;SDS011;3122;48.208;11.174;2023-08-06T14:59:33;1.00;;;0.90;;
6177;SDS011;3122;48.208;11.174;2023-08-06T15:04:33;1.00;;;1.00;;
6177;SDS011;3122;48.208;11.174;2023-08-06T15:09:34;2.70;;;1.20;;
6177;SDS011;3122;48.208;11.174;2023-08-06T15:14:34;1.10;;;1.00;;
6177;SDS011;3122;48.208;11.174;2023-08-06T15:19:35;1.10;;;1.00;;
6177;SDS011;3122;48.208;11.174;2023-08-06T15:24:36;1.30;;;0.90;;
6177;SDS011;3122;48.208;11.174;2023-08-06T15:29:41;0.90;;;0.90;;
6177;SDS011;3122;48.208;11.174;2023-08-06T15:34:42;1.30;;;1.20;;
6177;SDS011;3122;48.208;11.174;2023-08-06T15:39:43;1.27;;;0.93;;
6177;SDS011;3122;48.208;11.174;2023-08-06T15:44:44;1.40;;;0.80;;
6177;SDS011;3122;48.208;11.174;2023-08-06T15:49:44;1.20;;;1.10;;
6177;SDS011;3122;48.208;11.174;2023-08-06T15:54:45;1.03;;;0.80;;
6177;SDS011;3122;48.208;11.174;2023-08-06T15:59:45;5.93;;;1.37;;
6177;SDS011;3122;48.208;11.174;2023-08-06T16:04:46;0.90;;;0.90;;
6177;SDS011;3122;48.208;11.174;2023-08-06T16:09:47;1.90;;;0.90;;
6177;SDS011;3122;48.208;11.174;2023-08-06T16:14:47;2.13;;;0.90;;
6177;SDS011;3122;48.208;11.174;2023-08-06T16:19:49;0.90;;;0.90;;
6177;SDS011;3122;48.208;11.174;2023-08-06T16:24:50;2.10;;;1.00;;
6177;SDS011;3122;48.208;11.174;2023-08-06T16:29:51;1.20;;;1.03;;
6177;SDS011;3122;48.208;11.174;2023-08-06T16:34:51;1.20;;;1.03;;
6177;SDS011;3122;48.208;11.174;2023-08-06T16:39:52;1.10;;;0.93;;
6177;SDS011;3122;48.208;11.174;2023-08-06T16:44:53;0.93;;;0.90;;
6177;SDS011;3122;48.208;11.174;2023-08-06T16:49:54;1.07;;;1.07;;
6177;SDS011;3122;48.208;11.174;2023-08-06T16:54:54;0.90;;;0.90;;
6177;SDS011;3122;48.208;11.174;2023-08-06T16:59:55;1.50;;;0.90;;
6177;SDS011;3122;48.208;11.174;2023-08-06T17:04:55;1.30;;;1.20;;
6177;SDS011;3122;48.208;11.174;2023-08-06T17:09:56;0.87;;;0.87;;
6177;SDS011;3122;48.208;11.174;2023-08-06T17:14:57;2.00;;;1.10;;
6177;SDS011;3122;48.208;11.174;2023-08-06T17:19:59;1.57;;;1.47;;
6177;SDS011;3122;48.208;11.174;2023-08-06T17:25:00;1.90;;;1.70;;
6177;SDS011;3122;48.208;11.174;2023-08-06T17:30:01;2.00;;;1.67;;
6177;SDS011;3122;48.208;11.174;2023-08-06T17:35:02;1.20;;;1.10;;
6177;SDS011;3122;48.208;11.174;2023-08-06T17:40:02;1.53;;;1.10;;
6177;SDS011;3122;48.208;11.174;2023-08-06T17:45:03;1.90;;;1.17;;
6177;SDS011;3122;48.208;11.174;2023-08-06T17:50:04;1.23;;;1.13;;
6177;SDS011;3122;48.208;11.174;2023-08-06T17:55:06;2.40;;;1.40;;
6177;SDS011;3122;48.208;11.174;2023-08-06T18:00:07;2.10;;;1.10;;
6177;SDS011;3122;48.208;11.174;2023-08-06T18:05:08;1.53;;;1.30;;
6177;SDS011;3122;48.208;11.174;2023-08-06T18:10:14;1.50;;;1.40;;
6177;SDS011;3122;48.208;11.174;2023-08-06T18:15:15;1.23;;;1.13;;
6177;SDS011;3122;48.208;11.174;2023-08-06T18:20:15;1.63;;;1.53;;
6177;SDS011;3122;48.208;11.174;2023-08-06T18:25:16;4.10;;;1.30;;
6177;SDS011;3122;48.208;11.174;2023-08-06T18:30:16;1.10;;;1.10;;
6177;SDS011;3122;48.208;11.174;2023-08-06T18:35:17;1.20;;;1.20;;
6177;SDS011;3122;48.208;11.174;2023-08-06T18:40:18;1.47;;;1.37;;
6177;SDS011;3122;48.208;11.174;2023-08-06T18:45:18;1.90;;;1.40;;
6177;SDS011;3122;48.208;11.174;2023-08-06T18:50:19;1.47;;;1.37;;
6177;SDS011;3122;48.208;11.174;2023-08-06T18:55:19;1.50;;;1.40;;
6177;SDS011;3122;48.208;11.174;2023-08-06T19:00:20;1.83;;;1.73;;
6177;SDS011;3122;48.208;11.174;2023-08-06T19:05:20;2.90;;;1.80;;
6177;SDS011;3122;48.208;11.174;2023-08-06T19:10:21;1.70;;;1.60;;
6177;SDS011;3122;48.208;11.174;2023-08-06T19:15:24;1.50;;;1.40;;
6177;SDS011;3122;48.208;11.174;2023-08-06T19:20:24;2.90;;;2.17;;
6177;SDS011;3122;48.208;11.174;2023-08-06T19:25:25;1.50;;;1.30;;
6177;SDS011;3122;48.208;11.174;2023-08-06T19:30:25;1.50;;;1.40;;
6177;SDS011;3122;48.208;11.174;2023-08-06T19:35:27;1.53;;;1.33;;
6177;SDS011;3122;48.208;11.174;2023-08-06T19:40:27;1.10;;;1.00;;
6177;SDS011;3122;48.208;11.174;2023-08-06T19:45:28;7.30;;;5.00;;
6177;SDS011;3122;48.208;11.174;2023-08-06T19:50:28;2.23;;;1.80;;
6177;SDS011;3122;48.208;11.174;2023-08-06T19:55:29;1.97;;;1.77;;
6177;SDS011;3122;48.208;11.174;2023-08-06T20:00:29;2.47;;;1.77;;
6177;SDS011;3122;48.208;11.174;2023-08-06T20:05:30;1.67;;;1.57;;
6177;SDS011;3122;48.208;11.174;2023-08-06T20:10:30;3.40;;;2.00;;
6177;SDS011;3122;48.208;11.174;2023-08-06T20:15:31;1.83;;;1.60;;
6177;SDS011;3122;48.208;11.174;2023-08-06T20:20:35;3.50;;;1.90;;
6177;SDS011;3122;48.208;11.174;2023-08-06T20:25:36;1.67;;;1.57;;
6177;SDS011;3122;48.208;11.174;2023-08-06T20:30:39;3.60;;;1.40;;
6177;SDS011;3122;48.208;11.174;2023-08-06T20:35:41;1.50;;;1.40;;
6177;SDS011;3122;48.208;11.174;2023-08-06T20:40:42;3.17;;;1.40;;
6177;SDS011;3122;48.208;11.174;2023-08-06T20:45:43;1.73;;;1.63;;
6177;SDS011;3122;48.208;11.174;2023-08-06T20:50:50;3.17;;;1.53;;
6177;SDS011;3122;48.208;11.174;2023-08-06T20:56:02;2.40;;;1.63;;
6177;SDS011;3122;48.208;11.174;2023-08-06T21:01:03;1.90;;;1.70;;
6177;SDS011;3122;48.208;11.174;2023-08-06T21:06:05;1.70;;;1.57;;
6177;SDS011;3122;48.208;11.174;2023-08-06T21:11:07;1.63;;;1.53;;
6177;SDS011;3122;48.208;11.174;2023-08-06T21:16:08;1.73;;;1.60;;
6177;SDS011;3122;48.208;11.174;2023-08-06T21:21:09;1.80;;;1.70;;
6177;SDS011;3122;48.208;11.174;2023-08-06T21:26:09;1.90;;;1.70;;
6177;SDS011;3122;48.208;11.174;2023-08-06T21:31:11;2.70;;;2.10;;
6177;SDS011;3122;48.208;11.174;2023-08-06T21:36:12;4.97;;;1.63;;
6177;SDS011;3122;48.208;11.174;2023-08-06T21:41:14;2.37;;;1.97;;
6177;SDS011;3122;48.208;11.174;2023-08-06T21:46:16;2.33;;;2.13;;
6177;SDS011;3122;48.208;11.174;2023-08-06T21:51:18;1.67;;;1.57;;
6177;SDS011;3122;48.208;11.174;2023-08-06T21:56:19;2.23;;;1.83;;
6177;SDS011;3122;48.208;11.174;2023-08-06T22:01:20;3.83;;;1.60;;
6177;SDS011;3122;48.208;11.174;2023-08-06T22:06:21;1.70;;;1.60;;
6177;SDS011;3122;48.208;11.174;2023-08-06T22:11:22;1.93;;;1.73;;
6177;SDS011;3122;48.208;11.174;2023-08-06T22:16:22;2.37;;;1.70;;
6177;SDS011;3122;48.208;11.174;2023-08-06T22:21:23;1.77;;;1.67;;
6177;SDS011;3122;48.208;11.174;2023-08-06T22:26:23;1.60;;;1.50;;
6177;SDS011;3122;48.208;11.174;2023-08-06T22:31:24;1.70;;;1.40;;
6177;SDS011;3122;48.208;11.174;2023-08-06T22:36:25;1.60;;;1.50;;
6177;SDS011;3122;48.208;11.174;2023-08-06T22:41:26;2.73;;;1.97;;
6177;SDS011;3122;48.208;11.174;2023-08-06T22:46:26;2.17;;;1.70;;
6177;SDS011;3122;48.208;11.174;2023-08-06T22:51:27;2.17;;;1.80;;
6177;SDS011;3122;48.208;11.174;2023-08-06T22:56:28;3.67;;;1.97;;
6177;SDS011;3122;48.208;11.174;2023-08-06T23:01:28;2.63;;;1.50;;
6177;SDS011;3122;48.208;11.174;2023-08-06T23:06:29;2.40;;;1.70;;
6177;SDS011;3122;48.208;11.174;2023-08-06T23:11:29;1.37;;;1.27;;
6177;SDS011;3122;48.208;11.174;2023-08-06T23:16:30;1.53;;;1.43;;
6177;SDS011;3122;48.208;11.174;2023-08-06T23:21:30;3.47;;;1.70;;
6177;SDS011;3122;48.208;11.174;2023-08-06T23:26:31;3.07;;;1.50;;
6177;SDS011;3122;48.208;11.174;2023-08-06T23:31:32;1.47;;;1.30;;
6177;SDS011;3122;48.208;11.174;2023-08-06T23:36:33;2.30;;;1.50;;
6177;SDS011;3122;48.208;11.174;2023-08-06T23:41:33;2.07;;;1.27;;
6177;SDS011;3122;48.208;11.174;2023-08-06T23:46:34;1.50;;;1.40;;
6177;SDS011;3122;48.208;11.174;2023-08-06T23:51:35;1.37;;;1.27;;
6177;SDS011;3122;48.208;11.174;2023-08-06T23:56:36;1.40;;;1.30;;
